Time;durP1;ratioP1;P1;durP2;ratioP2;P2;SDS_P1;SDS_P2;PMS_P1;PMS_P2;Temp;Humidity;BMP_temperature;BMP_pressure;BME280_temperature;BME280_humidity;BME280_pressure;Samples;Min_cycle;Max_cycle;Signal;HPM_P1;HPM_P2
2023/10/24 00:01:59;;;;;;;11.90;6.72;;;12.50;99.90;;;;;;4991807;28;20455;-63
2023/10/24 00:04:45;;;;;;;10.13;7.53;;;12.50;99.90;;;;;;4979239;28;20210;-63
2023/10/24 00:07:31;;;;;;;9.20;7.60;;;12.50;99.90;;;;;;4992560;28;20034;-63
2023/10/24 00:10:17;;;;;;;9.13;7.00;;;12.40;99.90;;;;;;4992710;28;20046;-64
2023/10/24 00:13:03;;;;;;;9.60;7.97;;;12.50;99.90;;;;;;4991170;28;20043;-65
2023/10/24 00:15:49;;;;;;;10.02;7.00;;;12.50;99.90;;;;;;4992766;28;20034;-64
2023/10/24 00:18:35;;;;;;;7.97;7.13;;;12.50;99.90;;;;;;5001461;28;20074;-64
2023/10/24 00:21:21;;;;;;;10.45;7.50;;;12.40;99.90;;;;;;5011691;28;20057;-64
2023/10/24 00:24:07;;;;;;;9.57;7.45;;;12.40;99.90;;;;;;4997535;28;20074;-64
2023/10/24 00:26:54;;;;;;;9.35;6.78;;;12.40;99.90;;;;;;4992225;28;20034;-64
2023/10/24 00:29:40;;;;;;;12.43;7.43;;;12.40;99.90;;;;;;5004996;28;20654;-64
2023/10/24 00:32:26;;;;;;;8.07;6.93;;;12.40;99.90;;;;;;4994911;28;20536;-65
2023/10/24 00:35:12;;;;;;;9.70;7.45;;;12.40;99.90;;;;;;4997606;28;20042;-65
2023/10/24 00:37:58;;;;;;;11.32;7.97;;;12.30;99.90;;;;;;4982919;28;20068;-65
2023/10/24 00:40:43;;;;;;;11.13;8.20;;;12.40;99.90;;;;;;5009640;28;20052;-65
2023/10/24 00:43:29;;;;;;;19.27;8.05;;;12.40;99.90;;;;;;5011364;28;20495;-64
2023/10/24 00:46:16;;;;;;;10.32;7.63;;;12.30;99.90;;;;;;4992137;28;20038;-64
2023/10/24 00:49:03;;;;;;;10.57;7.90;;;12.40;99.90;;;;;;4991624;28;20046;-64
2023/10/24 00:51:49;;;;;;;10.15;7.10;;;12.30;99.90;;;;;;4992318;28;20563;-65
2023/10/24 00:54:35;;;;;;;13.23;8.05;;;12.30;99.90;;;;;;4995733;28;20048;-65
2023/10/24 00:57:22;;;;;;;10.57;7.43;;;12.30;99.90;;;;;;5011184;28;20095;-65
2023/10/24 01:00:10;;;;;;;10.95;7.10;;;12.30;99.90;;;;;;4991972;28;20411;-65
2023/10/24 01:02:56;;;;;;;10.63;7.63;;;12.30;99.90;;;;;;4991457;28;20046;-65
2023/10/24 01:05:43;;;;;;;10.57;7.50;;;12.30;99.90;;;;;;4990266;28;20042;-65
2023/10/24 01:08:29;;;;;;;10.40;8.48;;;12.40;99.90;;;;;;4991235;28;20416;-64
2023/10/24 01:11:15;;;;;;;10.77;8.38;;;12.40;99.90;;;;;;5010969;28;20046;-65
2023/10/24 01:14:01;;;;;;;11.00;7.97;;;12.40;99.90;;;;;;4992608;28;20130;-65
2023/10/24 01:16:47;;;;;;;11.30;7.97;;;12.40;99.90;;;;;;4990927;28;20093;-64
2023/10/24 01:19:33;;;;;;;11.00;7.57;;;12.40;99.90;;;;;;4994271;28;20109;-64
2023/10/24 01:22:19;;;;;;;11.52;7.25;;;12.40;99.90;;;;;;4994876;28;20110;-66
2023/10/24 01:25:13;;;;;;;18.35;7.72;;;12.30;99.90;;;;;;5001632;28;20476;-66
2023/10/24 01:28:00;;;;;;;10.50;7.85;;;12.40;99.90;;;;;;4991304;28;20086;-65
2023/10/24 01:30:46;;;;;;;10.52;7.95;;;12.40;99.90;;;;;;4992071;28;20125;-66
2023/10/24 01:33:32;;;;;;;10.30;7.55;;;12.40;99.90;;;;;;4992063;28;20109;-65
2023/10/24 01:36:18;;;;;;;10.02;7.45;;;12.40;99.90;;;;;;4991123;28;20053;-66
2023/10/24 01:39:04;;;;;;;8.85;6.90;;;12.40;99.90;;;;;;5000929;28;20073;-64
2023/10/24 01:41:49;;;;;;;9.30;7.55;;;12.40;99.90;;;;;;5000611;28;20109;-65
2023/10/24 01:44:35;;;;;;;11.45;8.10;;;12.40;99.90;;;;;;5001822;28;20058;-65
2023/10/24 01:47:21;;;;;;;11.00;7.68;;;12.40;99.90;;;;;;5005053;28;20052;-66
2023/10/24 01:50:08;;;;;;;10.82;7.72;;;12.40;99.90;;;;;;5008882;28;20430;-67
2023/10/24 01:52:54;;;;;;;9.95;8.05;;;12.40;99.90;;;;;;5008084;28;20414;-66
2023/10/24 01:55:40;;;;;;;11.05;7.85;;;12.40;99.90;;;;;;4999762;28;20040;-67
2023/10/24 01:58:26;;;;;;;14.45;8.07;;;12.50;99.90;;;;;;4991223;28;20512;-65
2023/10/24 02:01:12;;;;;;;11.77;8.10;;;12.50;99.90;;;;;;4994940;28;20043;-64
2023/10/24 02:03:59;;;;;;;11.25;8.23;;;12.50;99.90;;;;;;4988935;28;20064;-66
2023/10/24 02:06:45;;;;;;;13.13;7.47;;;12.50;99.90;;;;;;5000793;28;20129;-65
2023/10/24 02:09:31;;;;;;;11.02;7.60;;;12.50;99.90;;;;;;4999870;28;20488;-67
2023/10/24 02:12:17;;;;;;;9.38;7.13;;;12.60;99.90;;;;;;4993738;28;20132;-65
2023/10/24 02:15:04;;;;;;;8.88;7.18;;;12.60;99.90;;;;;;4991906;28;20137;-63
2023/10/24 02:17:50;;;;;;;11.63;8.02;;;12.60;99.90;;;;;;5008271;28;20108;-64
2023/10/24 02:20:39;;;;;;;11.70;7.30;;;12.60;99.90;;;;;;5008496;28;20030;-64
2023/10/24 02:23:25;;;;;;;10.80;7.57;;;12.70;99.90;;;;;;5008907;28;20042;-63
2023/10/24 02:26:14;;;;;;;9.38;6.93;;;12.70;99.90;;;;;;5001171;28;20403;-64
2023/10/24 02:29:00;;;;;;;12.55;7.90;;;12.70;99.90;;;;;;5000808;28;20049;-64
2023/10/24 02:31:46;;;;;;;11.52;7.20;;;12.70;99.90;;;;;;5009105;28;20058;-64
2023/10/24 02:34:32;;;;;;;12.57;6.53;;;12.70;99.90;;;;;;4992385;28;20046;-64
2023/10/24 02:37:18;;;;;;;11.02;8.10;;;12.70;99.90;;;;;;4989977;28;20049;-64
2023/10/24 02:40:05;;;;;;;9.63;6.97;;;12.80;99.90;;;;;;4989780;28;20397;-64
2023/10/24 02:42:51;;;;;;;10.48;7.45;;;12.80;99.90;;;;;;4994431;28;20049;-64
2023/10/24 02:45:38;;;;;;;14.70;7.72;;;12.80;99.90;;;;;;4997509;28;20073;-64
2023/10/24 02:48:24;;;;;;;12.27;7.57;;;12.80;99.90;;;;;;4990379;28;20125;-64
2023/10/24 02:51:10;;;;;;;12.65;7.82;;;12.80;99.90;;;;;;4989836;28;20049;-64
2023/10/24 02:53:56;;;;;;;13.30;9.07;;;12.80;99.90;;;;;;4990482;28;20039;-64
2023/10/24 02:56:42;;;;;;;9.38;7.13;;;12.80;99.90;;;;;;4989386;28;20463;-64
2023/10/24 02:59:28;;;;;;;14.02;7.97;;;12.90;99.90;;;;;;4994976;28;20081;-64
2023/10/24 03:02:14;;;;;;;13.25;7.35;;;12.90;99.90;;;;;;5004869;28;20104;-64
2023/10/24 03:04:59;;;;;;;8.45;6.88;;;12.90;99.90;;;;;;4995017;28;20061;-64
2023/10/24 03:07:45;;;;;;;12.18;8.38;;;12.90;99.90;;;;;;4989134;28;20076;-64
2023/10/24 03:10:37;;;;;;;10.85;7.32;;;12.90;99.90;;;;;;4989935;28;20053;-63
2023/10/24 03:13:23;;;;;;;12.07;8.25;;;12.90;99.90;;;;;;4989982;28;20107;-64
2023/10/24 03:16:09;;;;;;;11.63;7.60;;;12.90;99.90;;;;;;5008301;28;20030;-64
2023/10/24 03:18:56;;;;;;;10.95;7.45;;;12.90;99.90;;;;;;5009832;28;20134;-64
2023/10/24 03:21:41;;;;;;;12.10;7.25;;;13.00;99.90;;;;;;4996903;28;20503;-64
2023/10/24 03:24:28;;;;;;;12.40;7.95;;;13.00;99.90;;;;;;4995018;28;20130;-64
2023/10/24 03:27:14;;;;;;;12.32;7.55;;;13.00;99.90;;;;;;4994168;28;20038;-64
2023/10/24 03:30:00;;;;;;;13.23;8.45;;;13.00;99.90;;;;;;4988658;28;20049;-64
2023/10/24 03:32:47;;;;;;;12.32;8.25;;;13.00;99.90;;;;;;4989074;28;20061;-65
2023/10/24 03:35:33;;;;;;;9.35;7.22;;;12.90;99.90;;;;;;4990539;28;20047;-64
2023/10/24 03:38:19;;;;;;;10.50;7.75;;;13.00;99.90;;;;;;4993593;28;20189;-65
2023/10/24 03:41:06;;;;;;;10.45;7.30;;;13.00;99.90;;;;;;4993118;28;20423;-64
2023/10/24 03:43:52;;;;;;;10.63;8.20;;;12.90;99.90;;;;;;5006821;28;20087;-64
2023/10/24 03:46:38;;;;;;;13.35;7.88;;;12.90;99.90;;;;;;4993347;28;20349;-63
2023/10/24 03:49:24;;;;;;;11.38;7.72;;;12.90;99.90;;;;;;4999343;28;20050;-63
2023/10/24 03:52:10;;;;;;;10.23;7.43;;;12.90;99.90;;;;;;5001185;28;20081;-63
2023/10/24 03:54:56;;;;;;;15.73;7.85;;;12.90;99.90;;;;;;4991176;28;20125;-64
2023/10/24 03:57:42;;;;;;;9.57;7.25;;;12.90;99.90;;;;;;5007444;28;20092;-64
2023/10/24 04:00:28;;;;;;;15.13;7.25;;;12.90;99.90;;;;;;5011874;28;20034;-63
2023/10/24 04:03:14;;;;;;;9.50;7.20;;;12.90;99.90;;;;;;5007012;28;20038;-64
2023/10/24 04:06:00;;;;;;;10.07;7.03;;;12.90;99.90;;;;;;4992955;28;20183;-63
2023/10/24 04:08:46;;;;;;;11.63;7.15;;;12.90;99.90;;;;;;4990923;28;20124;-64
2023/10/24 04:11:32;;;;;;;10.10;6.80;;;12.90;99.90;;;;;;5001005;28;20511;-64
2023/10/24 04:14:18;;;;;;;11.05;7.78;;;12.90;99.90;;;;;;4992791;28;20081;-64
2023/10/24 04:17:04;;;;;;;8.95;7.00;;;12.90;99.90;;;;;;4991080;28;20050;-64
2023/10/24 04:19:50;;;;;;;10.55;7.28;;;12.90;99.90;;;;;;4991937;28;20129;-63
2023/10/24 04:22:36;;;;;;;9.70;7.25;;;12.90;99.90;;;;;;4991871;28;20579;-64
2023/10/24 04:25:22;;;;;;;11.68;7.53;;;12.90;99.90;;;;;;5001816;28;20042;-63
2023/10/24 04:28:09;;;;;;;12.45;7.22;;;12.90;99.90;;;;;;5001177;28;20503;-64
2023/10/24 04:30:54;;;;;;;11.80;7.68;;;12.90;99.90;;;;;;5006904;28;20099;-64
2023/10/24 04:33:41;;;;;;;13.40;7.80;;;12.80;99.90;;;;;;5009962;28;20059;-64
2023/10/24 04:36:26;;;;;;;11.05;7.85;;;12.80;99.90;;;;;;5010292;28;20042;-64
2023/10/24 04:39:12;;;;;;;10.75;8.05;;;12.70;99.90;;;;;;5001416;28;20045;-64
2023/10/24 04:41:58;;;;;;;12.52;7.68;;;12.80;99.90;;;;;;5011600;28;20045;-65
2023/10/24 04:44:44;;;;;;;9.55;7.80;;;12.80;99.90;;;;;;5009895;28;20077;-65
2023/10/24 04:47:30;;;;;;;9.25;7.45;;;12.70;99.90;;;;;;5000555;28;20042;-64
2023/10/24 04:50:16;;;;;;;12.25;7.93;;;12.70;99.90;;;;;;5011262;28;20073;-64
2023/10/24 04:53:03;;;;;;;12.80;8.65;;;12.70;99.90;;;;;;5010114;28;20553;-64
2023/10/24 04:55:48;;;;;;;10.07;7.57;;;12.70;99.90;;;;;;4996226;28;20533;-63
2023/10/24 04:58:35;;;;;;;13.27;7.78;;;12.80;99.90;;;;;;4991748;28;20559;-63
2023/10/24 05:01:21;;;;;;;10.38;7.97;;;12.80;99.90;;;;;;4997550;28;20408;-64
2023/10/24 05:04:07;;;;;;;11.40;7.43;;;12.80;99.90;;;;;;4991727;28;20563;-64
2023/10/24 05:06:53;;;;;;;15.98;8.05;;;12.80;99.90;;;;;;4992451;28;20022;-64
2023/10/24 05:09:39;;;;;;;12.45;8.63;;;12.80;99.90;;;;;;4994424;28;20034;-64
2023/10/24 05:12:25;;;;;;;12.30;8.13;;;12.80;99.90;;;;;;4977164;28;20068;-65
2023/10/24 05:15:11;;;;;;;11.52;7.97;;;12.90;99.90;;;;;;5011279;28;20456;-65
2023/10/24 05:17:57;;;;;;;12.27;8.25;;;12.90;99.90;;;;;;4994524;28;20062;-64
2023/10/24 05:20:42;;;;;;;13.00;7.95;;;12.90;99.90;;;;;;4991341;28;20476;-64
2023/10/24 05:23:29;;;;;;;10.65;7.50;;;12.80;99.90;;;;;;4990637;28;20500;-64
2023/10/24 05:26:15;;;;;;;9.82;7.63;;;12.80;99.90;;;;;;5011061;28;20093;-65
2023/10/24 05:29:01;;;;;;;10.88;7.85;;;12.80;99.90;;;;;;4995222;28;20038;-64
2023/10/24 05:31:47;;;;;;;12.45;8.45;;;12.80;99.90;;;;;;5007802;28;20126;-64
2023/10/24 05:34:33;;;;;;;14.25;8.02;;;12.80;99.90;;;;;;5001432;28;20034;-63
2023/10/24 05:37:19;;;;;;;13.00;8.50;;;12.90;99.90;;;;;;4991440;28;20038;-64
2023/10/24 05:40:06;;;;;;;10.30;7.90;;;12.90;99.90;;;;;;4991345;28;20054;-65
2023/10/24 05:42:52;;;;;;;12.55;8.18;;;12.80;99.90;;;;;;4989963;28;20046;-64
2023/10/24 05:45:38;;;;;;;12.25;7.93;;;12.80;99.90;;;;;;4995759;28;20491;-64
2023/10/24 05:48:25;;;;;;;10.57;8.07;;;12.80;99.90;;;;;;5007686;28;20511;-65
2023/10/24 05:51:24;;;;;;;12.23;7.93;;;12.80;99.90;;;;;;4990653;28;20061;-64
2023/10/24 05:54:09;;;;;;;9.68;7.65;;;12.80;99.90;;;;;;5005310;28;20038;-64
2023/10/24 05:56:56;;;;;;;12.13;8.23;;;12.80;99.90;;;;;;4989525;28;20137;-64
2023/10/24 05:59:41;;;;;;;13.20;8.25;;;12.80;99.90;;;;;;4991271;28;20165;-64
2023/10/24 06:02:27;;;;;;;11.77;8.23;;;12.80;99.90;;;;;;4989124;28;20042;-65
2023/10/24 06:05:13;;;;;;;10.73;7.63;;;12.80;99.90;;;;;;4990092;28;20477;-66
2023/10/24 06:07:59;;;;;;;12.60;7.50;;;12.80;99.90;;;;;;5000483;28;20499;-69
2023/10/24 06:10:54;;;;;;;14.50;7.32;;;12.80;99.90;;;;;;4995470;28;20053;-67
2023/10/24 06:13:40;;;;;;;11.25;7.93;;;12.80;99.90;;;;;;4993904;28;20431;-66
2023/10/24 06:16:27;;;;;;;11.27;7.25;;;12.80;99.90;;;;;;5004256;28;20136;-66
2023/10/24 06:19:13;;;;;;;12.27;7.90;;;12.70;99.90;;;;;;5001220;28;20053;-65
2023/10/24 06:21:59;;;;;;;12.27;8.18;;;12.70;99.90;;;;;;4990576;28;20356;-65
2023/10/24 06:24:45;;;;;;;13.50;7.63;;;12.70;99.90;;;;;;4990192;28;20057;-65
2023/10/24 06:27:31;;;;;;;8.95;7.47;;;12.70;99.90;;;;;;5003462;28;20038;-64
2023/10/24 06:30:17;;;;;;;11.05;7.53;;;12.70;99.90;;;;;;4999350;28;20519;-65
2023/10/24 06:33:03;;;;;;;10.95;7.80;;;12.70;99.90;;;;;;4992022;28;20503;-64
2023/10/24 06:35:49;;;;;;;11.77;8.55;;;12.70;99.90;;;;;;5009491;28;20037;-65
2023/10/24 06:38:35;;;;;;;12.65;7.78;;;12.70;99.90;;;;;;4994804;28;20415;-66
2023/10/24 06:41:21;;;;;;;11.23;8.00;;;12.70;99.90;;;;;;4987572;28;20104;-65
2023/10/24 06:44:07;;;;;;;11.65;8.73;;;12.60;99.90;;;;;;4992891;28;20053;-65
2023/10/24 06:46:52;;;;;;;13.13;8.02;;;12.70;99.90;;;;;;4990756;28;20089;-65
2023/10/24 06:49:38;;;;;;;13.48;8.50;;;12.70;99.90;;;;;;4991651;28;20042;-63
2023/10/24 06:52:24;;;;;;;9.68;7.85;;;12.70;99.90;;;;;;4979113;28;20046;-63
2023/10/24 06:55:10;;;;;;;9.90;7.63;;;12.70;99.90;;;;;;4993596;28;20057;-63
2023/10/24 06:57:58;;;;;;;11.32;7.63;;;12.70;99.90;;;;;;5001111;28;20050;-62
2023/10/24 07:00:45;;;;;;;11.82;7.63;;;12.70;99.90;;;;;;4996005;28;20038;-62
2023/10/24 07:03:31;;;;;;;11.65;8.32;;;12.80;99.90;;;;;;4981562;28;20042;-62
2023/10/24 07:06:17;;;;;;;13.30;8.00;;;12.80;99.90;;;;;;5000989;28;20422;-63
2023/10/24 07:09:03;;;;;;;10.80;7.70;;;12.90;99.90;;;;;;4986912;28;20050;-64
2023/10/24 07:11:49;;;;;;;13.50;7.85;;;12.90;99.90;;;;;;4993827;28;20054;-61
2023/10/24 07:14:35;;;;;;;11.70;8.05;;;12.90;99.90;;;;;;4996637;28;20038;-62
2023/10/24 07:17:21;;;;;;;13.52;8.48;;;12.90;99.90;;;;;;5000472;28;20061;-64
2023/10/24 07:20:07;;;;;;;14.63;8.15;;;12.90;99.90;;;;;;4999466;28;20044;-62
2023/10/24 07:22:53;;;;;;;12.30;8.23;;;13.00;99.90;;;;;;5002279;28;20057;-63
2023/10/24 07:25:39;;;;;;;10.30;7.60;;;13.00;99.90;;;;;;5009316;28;20038;-63
2023/10/24 07:28:27;;;;;;;12.70;7.55;;;13.00;99.90;;;;;;4998317;28;20038;-65
2023/10/24 07:31:13;;;;;;;13.20;8.90;;;13.10;99.90;;;;;;4995442;28;20049;-62
2023/10/24 07:34:00;;;;;;;14.05;8.60;;;13.10;99.90;;;;;;4994365;28;20724;-63
2023/10/24 07:36:46;;;;;;;10.52;7.78;;;13.10;99.90;;;;;;4997636;28;20093;-62
2023/10/24 07:39:32;;;;;;;12.30;7.80;;;13.10;99.90;;;;;;4996191;28;20031;-63
2023/10/24 07:42:18;;;;;;;13.68;8.65;;;13.10;99.90;;;;;;5003096;28;20034;-63
2023/10/24 07:45:04;;;;;;;11.73;7.60;;;13.20;99.90;;;;;;5011650;28;20085;-63
2023/10/24 07:47:50;;;;;;;11.65;7.97;;;13.20;99.90;;;;;;5012464;28;20423;-62
2023/10/24 07:50:36;;;;;;;10.65;8.38;;;13.20;99.90;;;;;;5011682;28;20056;-63
2023/10/24 07:53:26;;;;;;;11.38;8.45;;;13.20;99.90;;;;;;5015975;28;20045;-62
2023/10/24 07:56:12;;;;;;;10.77;7.63;;;13.30;99.90;;;;;;5031521;28;20455;-62
2023/10/24 07:58:58;;;;;;;10.90;8.55;;;13.30;99.90;;;;;;5025313;28;20148;-63
2023/10/24 08:01:44;;;;;;;13.30;7.53;;;13.30;99.90;;;;;;5013829;28;20050;-63
2023/10/24 08:04:30;;;;;;;10.60;7.47;;;13.40;99.90;;;;;;5023907;28;20557;-62
2023/10/24 08:07:16;;;;;;;10.27;7.90;;;13.40;99.90;;;;;;5032507;28;20041;-62
2023/10/24 08:10:03;;;;;;;12.02;7.93;;;13.40;99.90;;;;;;5030431;28;20495;-63
2023/10/24 08:12:49;;;;;;;12.63;8.15;;;13.40;99.90;;;;;;5013294;28;20125;-62
2023/10/24 08:15:35;;;;;;;13.95;7.75;;;13.40;99.90;;;;;;5012148;28;20030;-63
2023/10/24 08:18:21;;;;;;;12.35;7.95;;;13.40;99.90;;;;;;5001864;28;20491;-64
2023/10/24 08:21:07;;;;;;;12.57;8.38;;;13.40;99.90;;;;;;5011252;28;20050;-62
2023/10/24 08:23:54;;;;;;;13.98;8.02;;;13.40;99.90;;;;;;5019374;28;20128;-63
2023/10/24 08:26:40;;;;;;;13.77;9.90;;;13.40;99.90;;;;;;5017254;28;20092;-63
2023/10/24 08:29:26;;;;;;;15.90;9.07;;;13.40;99.90;;;;;;5017251;28;20118;-63
2023/10/24 08:32:12;;;;;;;12.35;8.20;;;13.40;99.90;;;;;;5010898;28;20053;-62
2023/10/24 08:34:59;;;;;;;13.88;7.88;;;13.40;99.90;;;;;;5013485;28;20049;-63
2023/10/24 08:37:44;;;;;;;12.02;7.50;;;13.60;99.90;;;;;;5018668;28;20084;-63
2023/10/24 08:40:30;;;;;;;11.05;8.38;;;13.50;99.90;;;;;;5010352;28;20479;-64
2023/10/24 08:43:18;;;;;;;12.70;8.07;;;13.50;99.90;;;;;;5023962;28;20417;-63
2023/10/24 08:46:05;;;;;;;15.13;8.77;;;13.60;99.90;;;;;;5029113;28;20042;-63
2023/10/24 08:48:52;;;;;;;13.55;8.75;;;13.60;99.90;;;;;;5016102;28;20129;-63
2023/10/24 08:51:38;;;;;;;11.25;7.85;;;13.70;99.90;;;;;;5019411;28;20087;-62
2023/10/24 08:54:25;;;;;;;12.02;8.68;;;13.70;99.90;;;;;;5019432;28;20038;-63
2023/10/24 08:57:12;;;;;;;13.63;7.63;;;13.80;99.90;;;;;;5026213;28;20105;-62
2023/10/24 08:59:58;;;;;;;15.32;8.27;;;13.80;99.90;;;;;;5024958;28;20081;-62
2023/10/24 09:02:45;;;;;;;10.80;8.15;;;13.80;99.90;;;;;;5019868;28;20108;-64
2023/10/24 09:05:31;;;;;;;12.52;8.50;;;13.80;99.90;;;;;;5013831;28;20045;-64
2023/10/24 09:08:17;;;;;;;13.93;8.90;;;13.90;99.90;;;;;;5011099;28;20124;-64
2023/10/24 09:11:03;;;;;;;11.48;8.02;;;13.90;99.90;;;;;;5018911;28;20087;-64
2023/10/24 09:13:49;;;;;;;11.50;8.43;;;14.00;99.90;;;;;;5010768;28;20427;-62
2023/10/24 09:16:35;;;;;;;12.80;8.82;;;14.10;99.90;;;;;;5018218;28;20635;-64
2023/10/24 09:19:22;;;;;;;16.33;8.88;;;14.10;99.90;;;;;;5020254;28;20101;-65
2023/10/24 09:22:16;;;;;;;14.80;9.85;;;14.20;99.90;;;;;;5029918;28;20127;-62
2023/10/24 09:25:03;;;;;;;12.25;9.38;;;14.20;99.90;;;;;;5013715;28;20510;-63
2023/10/24 09:27:49;;;;;;;14.15;9.10;;;14.30;99.90;;;;;;5022187;28;20052;-63
2023/10/24 09:30:35;;;;;;;13.93;9.70;;;14.30;99.90;;;;;;5037972;28;20491;-64
2023/10/24 09:33:23;;;;;;;12.52;8.65;;;14.40;99.90;;;;;;5031449;28;20075;-63
2023/10/24 09:36:09;;;;;;;13.90;8.38;;;14.40;99.90;;;;;;5037417;28;20658;-63
2023/10/24 09:38:55;;;;;;;13.45;9.02;;;14.40;99.90;;;;;;5010039;28;20042;-63
2023/10/24 09:41:47;;;;;;;10.63;7.30;;;14.50;99.90;;;;;;5018979;28;20502;-65
2023/10/24 09:44:33;;;;;;;12.75;8.40;;;14.50;99.90;;;;;;5014437;28;20077;-66
2023/10/24 09:47:21;;;;;;;13.05;8.07;;;14.50;99.90;;;;;;5007490;28;20075;-65
2023/10/24 09:50:08;;;;;;;13.27;8.73;;;14.60;99.90;;;;;;5000809;28;20545;-65
2023/10/24 09:52:55;;;;;;;13.75;8.30;;;14.60;99.90;;;;;;4990074;28;20145;-66
2023/10/24 09:55:48;;;;;;;14.15;8.85;;;14.60;99.90;;;;;;4990544;28;20035;-67
2023/10/24 09:58:39;;;;;;;12.20;8.50;;;14.70;99.90;;;;;;5006782;28;20124;-67
2023/10/24 10:01:28;;;;;;;10.82;7.10;;;14.70;99.90;;;;;;5002034;28;20487;-67
2023/10/24 10:04:14;;;;;;;10.45;7.25;;;14.70;99.90;;;;;;4995903;28;20050;-67
2023/10/24 10:07:02;;;;;;;12.60;8.38;;;14.80;99.90;;;;;;4996749;28;20050;-67
2023/10/24 10:09:52;;;;;;;12.13;7.80;;;14.80;99.90;;;;;;5011938;28;20042;-67
2023/10/24 10:12:39;;;;;;;16.35;8.98;;;14.80;99.90;;;;;;4992495;28;20054;-68
2023/10/24 10:15:29;;;;;;;12.88;8.15;;;14.80;99.90;;;;;;5004591;28;20046;-68
2023/10/24 10:18:27;;;;;;;12.95;7.88;;;14.80;99.90;;;;;;4996564;28;20480;-67
2023/10/24 10:21:33;;;;;;;11.80;7.53;;;14.80;99.90;;;;;;5023361;28;20034;-69
2023/10/24 10:24:48;;;;;;;10.45;7.63;;;14.80;99.90;;;;;;5009821;28;20132;-68
2023/10/24 10:27:47;;;;;;;12.50;7.15;;;14.90;99.90;;;;;;5021949;28;20056;-66
2023/10/24 10:30:39;;;;;;;12.45;7.40;;;14.80;99.90;;;;;;5012275;28;20107;-66
2023/10/24 10:33:26;;;;;;;11.85;7.43;;;14.80;99.90;;;;;;5006979;28;20049;-68
2023/10/24 10:36:12;;;;;;;11.35;8.18;;;14.90;99.90;;;;;;5009295;28;20034;-68
2023/10/24 10:39:08;;;;;;;13.50;8.45;;;14.90;99.90;;;;;;5010429;28;20070;-68
2023/10/24 10:41:53;;;;;;;;;;;14.90;99.90;;;;;;5009666;28;20052;-68
2023/10/24 10:44:41;;;;;;;;;;;14.90;99.90;;;;;;5009535;28;20004;-68
2023/10/24 10:47:27;;;;;;;12.52;7.15;;;14.90;99.90;;;;;;5002922;28;19949;-68
2023/10/24 10:50:18;;;;;;;11.70;7.38;;;14.90;99.90;;;;;;4994729;28;20393;-68
2023/10/24 10:53:23;;;;;;;13.68;8.52;;;15.00;99.90;;;;;;4994259;28;20492;-68
2023/10/24 10:56:19;;;;;;;11.07;7.95;;;15.00;99.90;;;;;;5010424;28;20519;-68
2023/10/24 10:59:11;;;;;;;11.43;7.80;;;15.00;99.90;;;;;;5012271;28;20057;-68
2023/10/24 11:02:16;;;;;;;11.35;7.82;;;15.10;99.90;;;;;;5020087;28;20037;-68
2023/10/24 11:05:37;;;;;;;13.68;8.15;;;15.10;99.90;;;;;;5032951;28;20052;-68
2023/10/24 11:08:23;;;;;;;10.38;7.72;;;15.10;99.90;;;;;;5001658;28;20472;-68
2023/10/24 11:11:10;;;;;;;12.73;8.10;;;15.20;99.90;;;;;;5002399;28;20495;-68
2023/10/24 11:14:17;;;;;;;13.10;8.73;;;15.30;99.90;;;;;;5012219;28;20100;-67
2023/10/24 11:17:04;;;;;;;12.10;8.20;;;15.30;99.90;;;;;;5032137;28;20371;-67
2023/10/24 11:19:50;;;;;;;9.77;7.95;;;15.40;99.90;;;;;;5013298;28;20181;-68
2023/10/24 11:22:37;;;;;;;13.77;7.78;;;15.40;99.90;;;;;;5029557;28;20068;-68
2023/10/24 11:25:23;;;;;;;16.15;7.97;;;15.50;99.90;;;;;;4995914;28;20419;-68
2023/10/24 11:28:10;;;;;;;12.82;8.95;;;15.50;99.90;;;;;;5012772;28;20407;-68
2023/10/24 11:30:57;;;;;;;11.25;7.93;;;15.60;99.90;;;;;;5012161;28;20073;-67
2023/10/24 11:33:43;;;;;;;12.38;8.30;;;15.60;99.90;;;;;;5010148;28;20077;-68
2023/10/24 11:36:29;;;;;;;10.95;7.45;;;15.60;99.90;;;;;;5003097;28;20046;-68
2023/10/24 11:39:15;;;;;;;11.15;8.02;;;15.60;99.90;;;;;;4993231;28;20042;-68
2023/10/24 11:42:02;;;;;;;10.50;8.32;;;15.70;99.90;;;;;;5012239;28;20083;-68
2023/10/24 11:44:48;;;;;;;12.90;7.60;;;15.70;99.90;;;;;;5012207;28;20057;-68
2023/10/24 11:47:34;;;;;;;10.88;8.07;;;15.70;99.90;;;;;;5012899;28;20040;-68
2023/10/24 11:50:42;;;;;;;12.40;7.55;;;15.70;99.90;;;;;;5012474;28;20041;-68
2023/10/24 11:53:28;;;;;;;12.73;8.18;;;15.60;99.90;;;;;;5011303;28;20116;-68
2023/10/24 11:56:15;;;;;;;11.88;7.45;;;15.60;99.90;;;;;;5012102;28;20100;-68
2023/10/24 11:59:02;;;;;;;11.55;8.20;;;15.70;99.90;;;;;;5012142;28;20053;-67
2023/10/24 12:01:49;;;;;;;11.05;7.63;;;15.70;99.90;;;;;;5012159;28;20372;-68
2023/10/24 12:04:35;;;;;;;10.45;7.97;;;15.70;99.90;;;;;;5007727;28;20099;-68
2023/10/24 12:07:21;;;;;;;15.02;8.80;;;15.70;99.90;;;;;;4991566;28;20381;-67
2023/10/24 12:10:12;;;;;;;19.08;8.07;;;15.70;99.90;;;;;;5003881;28;20049;-67
2023/10/24 12:13:00;;;;;;;11.73;7.35;;;15.70;99.90;;;;;;5011581;28;20057;-68
2023/10/24 12:15:46;;;;;;;13.77;7.38;;;15.60;99.90;;;;;;4996312;28;20215;-68
2023/10/24 12:18:32;;;;;;;11.75;7.53;;;15.60;99.90;;;;;;4992348;28;20042;-68
2023/10/24 12:21:18;;;;;;;12.18;7.43;;;15.60;99.90;;;;;;4984195;28;20038;-68
2023/10/24 12:24:05;;;;;;;11.82;7.50;;;15.60;99.90;;;;;;5011582;28;20084;-68
2023/10/24 12:26:51;;;;;;;11.98;8.07;;;15.60;99.90;;;;;;5011637;28;20080;-68
2023/10/24 12:29:36;;;;;;;9.15;7.05;;;15.50;99.90;;;;;;5001324;28;20045;-67
2023/10/24 12:32:22;;;;;;;10.23;7.03;;;15.50;99.90;;;;;;4993040;28;20062;-68
2023/10/24 12:35:09;;;;;;;12.32;8.35;;;15.50;99.90;;;;;;4977545;28;20046;-68
2023/10/24 12:37:55;;;;;;;10.25;7.65;;;15.40;99.90;;;;;;4991788;28;20384;-68
2023/10/24 12:40:41;;;;;;;12.95;8.27;;;15.40;99.90;;;;;;4991740;28;20065;-68
2023/10/24 12:43:27;;;;;;;11.32;8.10;;;15.40;99.90;;;;;;4990796;28;20700;-68
2023/10/24 12:46:13;;;;;;;12.20;8.35;;;15.40;99.90;;;;;;4991407;28;20034;-69
2023/10/24 12:48:59;;;;;;;12.90;8.82;;;15.40;99.90;;;;;;5003116;28;20037;-68
2023/10/24 12:51:46;;;;;;;12.60;8.82;;;15.40;99.90;;;;;;5010972;28;20050;-68
2023/10/24 12:54:32;;;;;;;13.48;8.38;;;15.40;99.90;;;;;;4996228;28;20046;-69
2023/10/24 12:57:18;;;;;;;15.93;10.10;;;15.40;99.90;;;;;;5028416;28;20060;-68
2023/10/24 13:00:05;;;;;;;13.55;8.18;;;15.40;99.90;;;;;;5030175;28;20471;-68
2023/10/24 13:02:53;;;;;;;10.88;8.20;;;15.40;99.90;;;;;;5030784;28;20076;-68
2023/10/24 13:05:39;;;;;;;14.70;8.25;;;15.40;99.90;;;;;;5012690;28;20046;-68
2023/10/24 13:08:25;;;;;;;12.55;8.25;;;15.40;99.90;;;;;;5003158;28;20629;-68
2023/10/24 13:11:11;;;;;;;12.90;8.98;;;15.40;99.90;;;;;;5012281;28;20042;-68
2023/10/24 13:13:57;;;;;;;12.75;8.15;;;15.40;99.90;;;;;;5010553;28;20074;-67
2023/10/24 13:16:43;;;;;;;12.30;8.25;;;15.50;99.90;;;;;;5017551;28;20049;-67
2023/10/24 13:19:29;;;;;;;11.05;7.85;;;15.50;99.90;;;;;;4991979;28;20447;-67
2023/10/24 13:22:17;;;;;;;13.63;8.82;;;15.50;99.90;;;;;;4998192;28;20104;-68
2023/10/24 13:25:03;;;;;;;12.10;8.43;;;15.50;99.90;;;;;;4995956;28;20147;-68
2023/10/24 13:27:49;;;;;;;12.88;7.93;;;15.50;99.90;;;;;;4991219;28;20108;-67
2023/10/24 13:30:35;;;;;;;13.38;9.10;;;15.50;99.90;;;;;;4996300;28;20038;-68
2023/10/24 13:33:23;;;;;;;18.35;10.00;;;15.50;99.90;;;;;;5011030;28;20058;-68
2023/10/24 13:36:11;;;;;;;14.77;10.25;;;15.50;99.90;;;;;;5009724;28;20456;-68
2023/10/24 13:38:57;;;;;;;12.57;9.05;;;15.50;99.90;;;;;;5008753;28;20508;-68
2023/10/24 13:41:44;;;;;;;17.88;10.48;;;15.50;99.90;;;;;;5010839;28;20034;-66
2023/10/24 13:44:30;;;;;;;15.55;10.52;;;15.40;99.90;;;;;;5009284;28;20058;-66
2023/10/24 13:47:16;;;;;;;13.88;8.18;;;15.50;99.90;;;;;;5020773;28;20415;-66
2023/10/24 13:50:02;;;;;;;16.92;9.43;;;15.40;99.90;;;;;;5011277;28;20427;-66
2023/10/24 13:52:48;;;;;;;14.50;9.02;;;15.40;99.90;;;;;;5010748;28;20050;-65
2023/10/24 13:55:36;;;;;;;10.63;8.07;;;15.40;99.90;;;;;;5013498;28;20115;-65
2023/10/24 13:58:22;;;;;;;16.70;9.85;;;15.40;99.90;;;;;;4990864;28;20038;-67
2023/10/24 14:01:08;;;;;;;13.82;9.38;;;15.40;99.90;;;;;;4991088;28;20042;-67
2023/10/24 14:03:54;;;;;;;16.75;9.43;;;15.40;99.90;;;;;;4996840;28;20104;-67
2023/10/24 14:06:40;;;;;;;12.93;9.20;;;15.40;99.90;;;;;;4993034;28;20042;-68
2023/10/24 14:09:26;;;;;;;13.73;9.18;;;15.30;99.90;;;;;;5006824;28;20046;-67
2023/10/24 14:12:12;;;;;;;12.05;8.23;;;15.30;99.90;;;;;;5010028;28;20115;-67
2023/10/24 14:14:58;;;;;;;13.10;9.07;;;15.30;99.90;;;;;;5012258;28;20491;-67
2023/10/24 14:17:44;;;;;;;15.65;10.38;;;15.30;99.90;;;;;;5013168;28;20128;-68
2023/10/24 14:20:31;;;;;;;15.88;10.88;;;15.30;99.90;;;;;;5002642;28;20045;-67